Weather observations for the past three days for
Red Bluff, Red Bluff Municipal Airport
Imperial (Metric)
Date Time (pdt) Wind (mph) Vis. (mi.) Weather Sky Cond. Temperature (ºF) Relative Humidity Wind Chill (°F) Heat Index (°F) Pressure Precipitation (in)
Air Dwpt 6 hour altimeter (in) sea level (mb) 1 hr 3 hr 6 hr
Max. Min.
02 14:54 S 12 10.00 Fair CLR 80.1 46.9 31% 79 29.82 1009.5
02 13:54 S 10 10.00 Mostly Cloudy BKN095 79 48.9 35% 79 29.84 1010.3
02 12:54 S 9 10.00 A Few Clouds FEW100 77 52 42% 78 29.86 1010.8
02 11:54 Calm 10.00 Fair CLR 73.9 57 56% 29.87 1011.3
02 10:54 SE 5 10.00 Fair CLR 70 55.9 70 59 61% 29.88 1011.6
02 09:54 S 6 10.00 Fair CLR 66.9 53.1 61% 29.88 1011.7
02 08:54 S 3 10.00 Fair CLR 63 55 76% 29.88 1011.5
02 07:54 Calm 10.00 Fair CLR 61 55.9 84% 29.87 1011.2
02 06:54 Calm 10.00 Fair CLR 60.1 55.9 86% 29.86 1010.9
02 05:54 Calm 10.00 Fair CLR 60.1 55.9 86% 29.84 1010.3
02 04:54 Calm 10.00 Fair CLR 60.1 57 68 59 90% 29.84 1010.3
02 03:54 SW 3 10.00 Fair CLR 62.1 57 84% 29.84 1010.1
02 02:54 W 5 10.00 Fair CLR 62.1 57.9 86% 29.84 1010.1
02 01:54 N 5 10.00 Fair CLR 63 59 87% 29.84 1010.2
02 00:54 Calm 10.00 Fair CLR 63 59 87% 29.85 1010.5
01 23:54 Calm 10.00 Fair CLR 64 60.1 87% 29.85 1010.5
01 22:54 SW 3 10.00 Fair CLR 68 60.1 82.9 68 76% 29.85 1010.4
01 21:54 S 5 10.00 Fair CLR 70 61 73% 29.84 1010.2
01 20:54 S 3 10.00 Fair CLR 71.1 61 71% 29.82 1009.6
01 19:54 S 3 10.00 Fair CLR 75.9 59 56% 78 29.81 1009.0
01 18:54 SE 5 10.00 Fair CLR 80.1 57 45% 80 29.81 1009.1
01 17:54 SE 8 10.00 Fair CLR 81 57.9 45% 81 29.82 1009.5
01 16:54 S 5 10.00 Fair CLR 82.9 57 82.9 73.9 41% 82 29.82 1009.6
01 15:54 S 5 10.00 Fair CLR 82 55.9 41% 82 29.85 1010.4
01 14:54 Calm 10.00 Fair CLR 82 55 40% 81 29.87 1011.3
01 13:54 Vrbl 5 10.00 Fair CLR 82.9 54 37% 82 29.89 1011.7
01 12:54 Calm 10.00 Fair CLR 79 53.1 41% 79 29.91 1012.5
01 11:54 SE 3 10.00 Fair CLR 78.1 54 43% 79 29.93 1013.1
01 10:54 SW 3 10.00 Fair CLR 73.9 52 73.9 54 46% 29.94 1013.5
01 09:54 Calm 10.00 Fair CLR 71.1 51.1 49% 29.94 1013.6
01 08:54 NW 6 10.00 Fair CLR 66 50 56% 29.95 1013.8
01 07:54 NW 5 10.00 Fair CLR 61 50 67% 29.94 1013.6
01 06:54 W 5 10.00 Fair CLR 55 48.9 80% 29.92 1012.9
01 05:54 NW 6 10.00 Fair CLR 55 48 77% 29.91 1012.5
01 04:54 NW 5 10.00 Fair CLR 55.9 48.9 63 55 77% 29.9 1012.3
01 03:54 NW 7 10.00 Fair CLR 57 48.9 74% 29.9 1012.3
01 02:54 NW 6 10.00 Fair CLR 57 50 78% 29.9 1012.2
01 01:54 W 7 10.00 Fair CLR 57 51.1 81% 29.9 1012.1
01 00:54 N 3 10.00 Fair CLR 57.9 51.1 78% 29.89 1012.0
30 23:54 Calm 10.00 Fair CLR 60.1 53.1 78% 29.89 1011.7
30 22:54 W 7 10.00 Fair CLR 63 53.1 87.1 63 70% 29.87 1011.1
30 21:54 NW 3 10.00 Fair CLR 64 54 70% 29.86 1010.8
30 20:54 Calm 10.00 Fair CLR 70 53.1 55% 29.84 1010.0
30 19:54 S 5 10.00 Fair CLR 78.1 55 45% 79 29.83 1009.7
30 18:54 Calm 10.00 Fair CLR 84.9 39 20% 82 29.82 1009.6
30 17:54 Calm 10.00 Fair CLR 87.1 37 17% 84 29.82 1009.6
30 16:54 N 6 10.00 Fair CLR 87.1 37.9 87.1 73.9 18% 84 29.83 1009.9
30 15:54 Calm 10.00 Fair CLR 87.1 36 16% 84 29.85 1010.5
30 14:54 N 6 10.00 Fair CLR 87.1 39 18% 84 29.87 1011.2
30 13:54 N 7 10.00 Fair CLR 84 45 25% 82 29.89 1011.7
30 12:54 N 8 10.00 Fair CLR 81 46 29% 80 29.9 1012.3
30 11:54 N 9 10.00 Fair CLR 78.1 46.9 33% 78 29.92 1012.9
30 10:54 NW 10 10.00 Fair CLR 73.9 46.9 73.9 51.1 38% 29.94 1013.5
30 09:54 N 8 10.00 Fair CLR 70 46.9 44% 29.95 1013.9
30 08:54 NW 9 10.00 Fair CLR 64.9 50 59% 29.96 1014.3
30 07:54 N 7 10.00 Fair CLR 59 50 72% 29.97 1014.6
30 06:54 NW 3 10.00 Fair CLR 53.1 48 83% 29.97 1014.5
30 05:54 NW 5 10.00 Fair CLR 51.1 46.9 86% 29.96 1014.2
30 04:54 NW 6 10.00 Fair CLR 54 48 60.1 52 80% 29.96 1014.3
30 03:54 NW 7 10.00 Fair CLR 53.1 48 83% 29.96 1014.3
30 02:54 NW 3 10.00 Fair CLR 54 48.9 83% 29.96 1014.3
30 01:54 NW 5 10.00 Fair CLR 55 51.1 87% 29.97 1014.7
30 00:54 NW 5 10.00 Fair CLR 57.9 51.1 78% 29.97 1014.7
29 23:54 Calm 10.00 Fair CLR 57.9 52 81% 29.96 1014.3
29 22:54 NW 3 10.00 Fair CLR 60.1 53.1 82 60.1 78% 29.95 1014.0
29 21:54 NW 5 10.00 Fair CLR 64.9 52 63% 29.95 1013.9
29 20:54 SW 3 10.00 Fair CLR 69.1 51.1 53% 29.94 1013.5
29 19:54 SW 3 10.00 Fair CLR 73 51.1 46% 29.92 1013.0
29 18:54 S 6 10.00 Fair CLR 79 50 36% 79 29.92 1012.9
29 17:54 SE 6 10.00 Fair CLR 81 44.1 27% 80 29.93 1013.1
29 16:54 N 10 G 18 10.00 Fair CLR 82 44.1 82 70 26% 80 29.93 1013.2
29 15:54 Calm 10.00 Fair CLR 81 43 26% 80 29.96 1014.1
Date Time (pdt) Wind (mph) Vis. (mi.) Weather Sky Cond. Air Dwpt Max. Min. Relative Humidity Wind Chill (°F) Heat Index (°F) altimeter (in) sea level (mb) 1 hr 3 hr 6 hr
6 hour
Temperature (ºF) Pressure Precipitation (in)